Time,TemperatureF,DewpointF,PressureIn,WindDirection,WindDirectionDegrees,WindSpeedMPH,WindSpeedGustMPH,Humidity,HourlyPrecipIn,Conditions,Clouds,dailyrainin,SoftwareType,DateUTC
2013-04-26 00:01:00,30.4,27.5,29.33,North,0,0.0,0.0,88,0.00,,,0.00,proprietary,2013-04-26 04:01:00,
2013-04-26 00:02:00,30.4,27.5,29.33,South,186,0.3,1.2,88,0.00,,,0.00,proprietary,2013-04-26 04:02:00,
2013-04-26 00:03:00,30.4,27.6,29.33,South,186,0.7,1.2,89,0.00,,,0.00,proprietary,2013-04-26 04:03:00,
2013-04-26 00:08:00,30.2,27.5,29.33,North,0,0.0,0.0,89,0.00,,,0.00,proprietary,2013-04-26 04:08:00,
2013-04-26 00:11:00,30.3,28.1,29.33,North,0,0.0,0.0,91,0.00,,,0.00,proprietary,2013-04-26 04:11:00,
2013-04-26 00:16:00,30.4,28.5,29.33,South,186,0.9,1.7,92,0.00,,,0.00,proprietary,2013-04-26 04:16:00,
2013-04-26 00:21:00,30.4,28.2,29.33,North,0,0.0,0.0,91,0.00,,,0.00,proprietary,2013-04-26 04:21:00,
2013-04-26 00:22:00,30.5,28.2,29.33,North,0,0.0,0.0,91,0.00,,,0.00,proprietary,2013-04-26 04:22:00,
2013-04-26 00:27:00,30.5,27.9,29.33,South,186,0.8,1.3,89,0.00,,,0.00,proprietary,2013-04-26 04:27:00,
2013-04-26 00:32:00,30.3,27.5,29.34,North,0,0.0,0.0,89,0.00,,,0.00,proprietary,2013-04-26 04:32:00,
2013-04-26 00:37:00,30.0,27.6,29.34,North,0,0.0,0.0,90,0.00,,,0.00,proprietary,2013-04-26 04:37:00,
2013-04-26 00:42:00,30.0,27.8,29.34,North,0,0.0,0.0,91,0.00,,,0.00,proprietary,2013-04-26 04:42:00,
2013-04-26 00:47:00,30.4,28.2,29.34,North,0,0.0,0.0,91,0.00,,,0.00,proprietary,2013-04-26 04:47:00,
2013-04-26 00:52:00,29.8,27.2,29.34,North,0,0.0,0.0,89,0.00,,,0.00,proprietary,2013-04-26 04:52:00,
2013-04-26 00:57:00,29.3,27.1,29.34,North,0,0.0,0.0,91,0.00,,,0.00,proprietary,2013-04-26 04:57:00,
2013-04-26 01:02:00,29.3,27.7,29.34,North,0,0.0,0.0,93,0.00,,,0.00,proprietary,2013-04-26 05:02:00,
2013-04-26 01:07:00,29.4,27.7,29.34,North,0,0.0,0.0,93,0.00,,,0.00,proprietary,2013-04-26 05:07:00,
2013-04-26 01:12:00,29.4,27.6,29.34,North,0,0.0,0.0,92,0.00,,,0.00,proprietary,2013-04-26 05:12:00,
2013-04-26 01:17:00,29.4,27.4,29.34,North,0,0.0,0.0,92,0.00,,,0.00,proprietary,2013-04-26 05:17:00,
2013-04-26 01:22:00,29.3,27.4,29.35,North,0,0.0,0.0,92,0.00,,,0.00,proprietary,2013-04-26 05:22:00,
2013-04-26 01:28:00,29.3,27.3,29.35,North,0,0.0,0.0,92,0.00,,,0.00,proprietary,2013-04-26 05:28:00,
2013-04-26 01:35:00,29.3,27.4,29.35,North,0,0.0,0.0,92,0.00,,,0.00,proprietary,2013-04-26 05:35:00,
2013-04-26 01:40:00,29.0,27.1,29.35,North,0,0.0,0.0,92,0.00,,,0.00,proprietary,2013-04-26 05:40:00,
2013-04-26 01:45:00,28.9,27.2,29.35,South,186,0.6,1.5,93,0.00,,,0.00,proprietary,2013-04-26 05:45:00,
2013-04-26 01:50:00,29.5,27.5,29.35,North,0,0.0,0.0,92,0.00,,,0.00,proprietary,2013-04-26 05:50:00,
2013-04-26 01:55:00,29.3,27.2,29.35,North,0,0.0,0.0,91,0.00,,,0.00,proprietary,2013-04-26 05:55:00,
2013-04-26 02:01:00,29.1,27.2,29.35,North,0,0.0,0.0,92,0.00,,,0.00,proprietary,2013-04-26 06:01:00,
2013-04-26 02:07:00,29.0,27.3,29.36,North,0,0.0,0.0,92,0.00,,,0.00,proprietary,2013-04-26 06:07:00,
2013-04-26 02:12:00,29.0,27.4,29.36,North,0,0.0,0.0,93,0.00,,,0.00,proprietary,2013-04-26 06:12:00,
2013-04-26 02:18:00,29.0,27.5,29.36,North,0,0.0,0.0,93,0.00,,,0.00,proprietary,2013-04-26 06:18:00,
2013-04-26 02:24:00,28.7,27.0,29.35,North,0,0.0,0.0,93,0.00,,,0.00,proprietary,2013-04-26 06:24:00,
2013-04-26 02:29:00,28.7,27.3,29.35,North,0,0.0,0.0,94,0.00,,,0.00,proprietary,2013-04-26 06:29:00,
2013-04-26 02:34:00,28.8,27.2,29.35,North,0,0.0,0.0,93,0.00,,,0.00,proprietary,2013-04-26 06:34:00,
2013-04-26 02:40:00,29.0,27.4,29.35,North,0,0.0,0.0,93,0.00,,,0.00,proprietary,2013-04-26 06:40:00,
2013-04-26 02:46:00,28.8,26.6,29.34,South,186,0.9,1.3,91,0.00,,,0.00,proprietary,2013-04-26 06:46:00,
2013-04-26 02:51:00,29.3,27.2,29.35,South,186,1.1,1.7,91,0.00,,,0.00,proprietary,2013-04-26 06:51:00,
2013-04-26 02:56:00,29.2,26.9,29.34,North,0,0.0,0.0,90,0.00,,,0.00,proprietary,2013-04-26 06:56:00,
2013-04-26 03:01:00,29.3,27.2,29.34,North,0,0.0,0.0,91,0.00,,,0.00,proprietary,2013-04-26 07:01:00,
2013-04-26 03:06:00,29.5,27.3,29.34,South,187,0.2,1.2,91,0.00,,,0.00,proprietary,2013-04-26 07:06:00,
2013-04-26 03:12:00,29.1,26.8,29.34,North,0,0.0,0.0,90,0.00,,,0.00,proprietary,2013-04-26 07:12:00,
2013-04-26 03:17:00,28.8,26.6,29.34,North,0,0.0,0.0,91,0.00,,,0.00,proprietary,2013-04-26 07:17:00,
2013-04-26 03:22:00,28.5,26.5,29.34,North,0,0.0,0.0,91,0.00,,,0.00,proprietary,2013-04-26 07:22:00,
2013-04-26 03:27:00,28.4,26.4,29.34,North,0,0.0,0.0,92,0.00,,,0.00,proprietary,2013-04-26 07:27:00,
2013-04-26 03:32:00,28.3,26.6,29.34,North,0,0.0,0.0,93,0.00,,,0.00,proprietary,2013-04-26 07:32:00,
2013-04-26 03:37:00,28.5,26.7,29.34,North,0,0.0,0.0,92,0.00,,,0.00,proprietary,2013-04-26 07:37:00,
2013-04-26 03:42:00,28.5,26.7,29.35,North,0,0.0,0.0,92,0.00,,,0.00,proprietary,2013-04-26 07:42:00,
2013-04-26 03:47:00,28.4,26.8,29.34,North,0,0.0,0.0,93,0.00,,,0.00,proprietary,2013-04-26 07:47:00,
2013-04-26 03:52:00,28.3,26.8,29.35,North,0,0.0,0.0,93,0.00,,,0.00,proprietary,2013-04-26 07:52:00,
2013-04-26 03:57:00,28.1,26.6,29.35,North,0,0.0,0.0,94,0.00,,,0.00,proprietary,2013-04-26 07:57:00,
2013-04-26 04:02:00,28.0,26.6,29.35,North,0,0.0,0.0,94,0.00,,,0.00,proprietary,2013-04-26 08:02:00,
2013-04-26 04:07:00,28.1,26.8,29.35,North,0,0.0,0.0,94,0.00,,,0.00,proprietary,2013-04-26 08:07:00,
2013-04-26 04:12:00,27.6,26.1,29.35,North,0,0.0,0.0,94,0.00,,,0.00,proprietary,2013-04-26 08:12:00,
2013-04-26 04:17:00,27.5,26.2,29.35,North,0,0.0,0.0,94,0.00,,,0.00,proprietary,2013-04-26 08:17:00,
2013-04-26 04:22:00,27.4,26.2,29.35,North,0,0.0,0.0,95,0.00,,,0.00,proprietary,2013-04-26 08:22:00,
2013-04-26 04:27:00,27.6,26.6,29.35,North,0,0.0,0.0,95,0.00,,,0.00,proprietary,2013-04-26 08:27:00,
2013-04-26 04:32:00,27.6,26.5,29.35,North,0,0.0,0.0,95,0.00,,,0.00,proprietary,2013-04-26 08:32:00,
2013-04-26 04:37:00,28.0,27.0,29.35,North,0,0.0,0.0,95,0.00,,,0.00,proprietary,2013-04-26 08:37:00,
2013-04-26 04:42:00,27.6,26.5,29.36,North,0,0.0,0.0,95,0.00,,,0.00,proprietary,2013-04-26 08:42:00,
2013-04-26 04:47:00,27.4,26.3,29.36,South,186,0.1,1.1,95,0.00,,,0.00,proprietary,2013-04-26 08:47:00,
2013-04-26 04:52:00,27.6,26.6,29.36,North,0,0.0,0.0,95,0.00,,,0.00,proprietary,2013-04-26 08:52:00,
2013-04-26 04:57:00,27.6,26.6,29.36,North,0,0.0,0.0,95,0.00,,,0.00,proprietary,2013-04-26 08:57:00,
2013-04-26 05:02:00,27.6,26.5,29.36,North,0,0.0,0.0,95,0.00,,,0.00,proprietary,2013-04-26 09:02:00,
2013-04-26 05:07:00,27.5,26.5,29.36,North,0,0.0,0.0,95,0.00,,,0.00,proprietary,2013-04-26 09:07:00,
2013-04-26 05:12:00,27.3,26.3,29.36,South,187,0.7,1.2,95,0.00,,,0.00,proprietary,2013-04-26 09:12:00,
2013-04-26 05:17:00,27.3,26.2,29.36,South,186,1.8,2.0,95,0.00,,,0.00,proprietary,2013-04-26 09:17:00,
2013-04-26 05:22:00,27.4,26.1,29.36,South,186,1.7,1.8,94,0.00,,,0.00,proprietary,2013-04-26 09:22:00,
2013-04-26 05:27:00,27.3,25.8,29.36,North,0,0.0,0.0,93,0.00,,,0.00,proprietary,2013-04-26 09:27:00,
2013-04-26 05:32:00,27.1,25.8,29.36,North,0,0.0,0.0,94,0.00,,,0.00,proprietary,2013-04-26 09:32:00,
2013-04-26 05:37:00,27.1,25.9,29.36,North,0,0.0,0.0,95,0.00,,,0.00,proprietary,2013-04-26 09:37:00,
2013-04-26 05:42:00,27.1,25.9,29.36,North,0,0.0,0.0,95,0.00,,,0.00,proprietary,2013-04-26 09:42:00,
2013-04-26 05:47:00,26.9,25.8,29.37,North,0,0.0,0.0,95,0.00,,,0.00,proprietary,2013-04-26 09:47:00,
2013-04-26 05:52:00,27.1,26.0,29.37,North,0,0.0,0.0,95,0.00,,,0.00,proprietary,2013-04-26 09:52:00,
2013-04-26 05:57:00,26.9,25.7,29.37,North,0,0.0,0.0,94,0.00,,,0.00,proprietary,2013-04-26 09:57:00,
2013-04-26 06:02:00,26.9,25.7,29.37,North,0,0.0,0.0,95,0.00,,,0.00,proprietary,2013-04-26 10:02:00,
2013-04-26 06:07:00,26.7,25.6,29.37,North,0,0.0,0.0,95,0.00,,,0.00,proprietary,2013-04-26 10:07:00,
2013-04-26 06:12:00,26.9,25.9,29.37,North,0,0.0,0.0,95,0.00,,,0.00,proprietary,2013-04-26 10:12:00,
2013-04-26 06:17:00,26.5,25.4,29.37,North,0,0.0,0.0,95,0.00,,,0.00,proprietary,2013-04-26 10:17:00,
2013-04-26 06:22:00,26.6,25.6,29.37,North,0,0.0,0.0,95,0.00,,,0.00,proprietary,2013-04-26 10:22:00,
2013-04-26 06:27:00,26.5,25.5,29.38,North,0,0.0,0.0,95,0.00,,,0.00,proprietary,2013-04-26 10:27:00,
2013-04-26 06:32:00,26.9,26.1,29.37,North,0,0.0,0.0,96,0.00,,,0.00,proprietary,2013-04-26 10:32:00,
2013-04-26 06:37:00,26.7,25.7,29.37,North,0,0.0,0.0,96,0.00,,,0.00,proprietary,2013-04-26 10:37:00,
2013-04-26 06:42:00,26.6,25.6,29.38,North,0,0.0,0.0,96,0.00,,,0.00,proprietary,2013-04-26 10:42:00,
2013-04-26 06:47:00,26.6,25.7,29.38,South,187,0.9,1.6,96,0.00,,,0.00,proprietary,2013-04-26 10:47:00,
2013-04-26 06:52:00,26.8,25.7,29.38,North,0,0.0,0.0,95,0.00,,,0.00,proprietary,2013-04-26 10:52:00,
2013-04-26 06:57:00,26.8,25.6,29.38,North,0,0.0,0.0,95,0.00,,,0.00,proprietary,2013-04-26 10:57:00,
2013-04-26 07:02:00,27.0,25.7,29.38,North,0,0.0,0.0,94,0.00,,,0.00,proprietary,2013-04-26 11:02:00,
2013-04-26 07:07:00,27.1,25.7,29.39,North,0,0.0,0.0,94,0.00,,,0.00,proprietary,2013-04-26 11:07:00,
2013-04-26 07:12:00,27.6,26.1,29.39,North,0,0.0,0.0,94,0.00,,,0.00,proprietary,2013-04-26 11:12:00,
2013-04-26 07:17:00,27.7,26.2,29.39,North,0,0.0,0.0,94,0.00,,,0.00,proprietary,2013-04-26 11:17:00,
2013-04-26 07:22:00,27.8,26.3,29.38,North,0,0.0,0.0,94,0.00,,,0.00,proprietary,2013-04-26 11:22:00,
2013-04-26 07:27:00,28.5,27.1,29.39,North,0,0.0,0.0,94,0.00,,,0.00,proprietary,2013-04-26 11:27:00,
2013-04-26 07:32:00,28.6,27.2,29.39,North,0,0.0,0.0,94,0.00,,,0.00,proprietary,2013-04-26 11:32:00,
2013-04-26 07:37:00,28.9,27.2,29.39,North,0,0.0,0.0,93,0.00,,,0.00,proprietary,2013-04-26 11:37:00,
2013-04-26 07:42:00,29.2,27.4,29.39,North,0,0.0,0.0,93,0.00,,,0.00,proprietary,2013-04-26 11:42:00,
2013-04-26 07:47:00,29.5,27.7,29.39,SSW,210,0.8,1.3,92,0.00,,,0.00,proprietary,2013-04-26 11:47:00,
2013-04-26 07:52:00,30.4,28.9,29.39,North,0,0.0,0.0,93,0.00,,,0.00,proprietary,2013-04-26 11:52:00,
2013-04-26 07:57:00,31.5,29.5,29.39,North,0,0.0,0.0,92,0.00,,,0.00,proprietary,2013-04-26 11:57:00,
2013-04-26 08:02:00,32.8,30.0,29.40,North,0,0.0,0.0,88,0.00,,,0.00,proprietary,2013-04-26 12:02:00,
2013-04-26 08:07:00,35.2,31.0,29.40,North,0,0.0,0.0,84,0.00,,,0.00,proprietary,2013-04-26 12:07:00,
2013-04-26 08:12:00,35.7,30.7,29.40,North,0,0.0,0.0,81,0.00,,,0.00,proprietary,2013-04-26 12:12:00,
2013-04-26 08:17:00,36.1,30.5,29.40,North,0,0.0,0.0,79,0.00,,,0.00,proprietary,2013-04-26 12:17:00,
2013-04-26 08:22:00,37.8,31.4,29.40,North,0,0.0,0.0,77,0.00,,,0.00,proprietary,2013-04-26 12:22:00,
2013-04-26 08:27:00,38.8,32.8,29.40,North,0,0.0,0.0,78,0.00,,,0.00,proprietary,2013-04-26 12:27:00,
2013-04-26 08:32:00,39.5,33.6,29.40,SE,145,0.8,1.6,79,0.00,,,0.00,proprietary,2013-04-26 12:32:00,
2013-04-26 08:37:00,41.1,31.8,29.40,ESE,123,2.2,2.6,69,0.00,,,0.00,proprietary,2013-04-26 12:37:00,
2013-04-26 08:42:00,40.6,33.2,29.41,SE,140,1.6,2.2,74,0.00,,,0.00,proprietary,2013-04-26 12:42:00,
2013-04-26 08:47:00,40.3,32.3,29.41,SSE,148,2.3,3.3,72,0.00,,,0.00,proprietary,2013-04-26 12:47:00,
2013-04-26 08:52:00,41.4,33.1,29.41,SE,135,2.7,3.7,72,0.00,,,0.00,proprietary,2013-04-26 12:52:00,
2013-04-26 08:57:00,42.6,31.7,29.41,SE,141,3.4,4.0,65,0.00,,,0.00,proprietary,2013-04-26 12:57:00,
2013-04-26 09:02:00,43.1,32.0,29.41,SE,138,3.9,4.6,64,0.00,,,0.00,proprietary,2013-04-26 13:02:00,
2013-04-26 09:07:00,43.9,33.0,29.41,SE,143,4.0,4.6,65,0.00,,,0.00,proprietary,2013-04-26 13:07:00,
2013-04-26 09:12:00,44.6,32.8,29.41,SSE,147,4.3,5.0,62,0.00,,,0.00,proprietary,2013-04-26 13:12:00,
2013-04-26 09:17:00,45.5,32.5,29.42,SE,137,3.3,4.2,60,0.00,,,0.00,proprietary,2013-04-26 13:17:00,
2013-04-26 09:22:00,45.8,31.3,29.42,SE,140,4.7,6.3,56,0.00,,,0.00,proprietary,2013-04-26 13:22:00,
2013-04-26 09:27:00,46.2,30.3,29.42,SE,143,7.8,9.0,53,0.00,,,0.00,proprietary,2013-04-26 13:27:00,
2013-04-26 09:32:00,45.9,29.7,29.42,South,177,6.5,7.9,52,0.00,,,0.00,proprietary,2013-04-26 13:32:00,
2013-04-26 09:37:00,46.3,29.2,29.42,SSE,166,6.3,7.5,50,0.00,,,0.00,proprietary,2013-04-26 13:37:00,
2013-04-26 09:42:00,46.8,29.9,29.42,SSE,157,7.8,9.8,51,0.00,,,0.00,proprietary,2013-04-26 13:42:00,
2013-04-26 09:47:00,47.0,30.9,29.43,SSE,147,6.6,7.4,53,0.00,,,0.00,proprietary,2013-04-26 13:47:00,
2013-04-26 09:52:00,47.3,30.9,29.43,SSE,158,7.3,8.4,52,0.00,,,0.00,proprietary,2013-04-26 13:52:00,
2013-04-26 09:57:00,47.6,30.3,29.43,SSE,163,7.4,10.1,50,0.00,,,0.00,proprietary,2013-04-26 13:57:00,
2013-04-26 10:02:00,47.7,30.0,29.43,South,180,8.2,9.3,49,0.00,,,0.00,proprietary,2013-04-26 14:02:00,
2013-04-26 10:07:00,47.8,29.8,29.43,SSE,167,9.3,11.4,49,0.00,,,0.00,proprietary,2013-04-26 14:07:00,
2013-04-26 10:12:00,47.9,29.7,29.43,South,169,10.5,13.6,48,0.00,,,0.00,proprietary,2013-04-26 14:12:00,
2013-04-26 10:17:00,48.1,29.5,29.43,SSE,160,7.1,8.8,48,0.00,,,0.00,proprietary,2013-04-26 14:17:00,
2013-04-26 10:22:00,48.9,30.7,29.43,SSE,160,7.9,9.9,49,0.00,,,0.00,proprietary,2013-04-26 14:22:00,
2013-04-26 10:27:00,49.1,30.9,29.42,South,173,8.1,10.9,49,0.00,,,0.00,proprietary,2013-04-26 14:27:00,
2013-04-26 10:32:00,49.1,29.5,29.42,SSW,193,5.8,8.9,46,0.00,,,0.00,proprietary,2013-04-26 14:32:00,
2013-04-26 10:37:00,49.1,30.3,29.42,South,181,7.5,9.4,47,0.00,,,0.00,proprietary,2013-04-26 14:37:00,
2013-04-26 10:42:00,48.6,29.0,29.42,SSE,155,8.5,10.9,46,0.00,,,0.00,proprietary,2013-04-26 14:42:00,
2013-04-26 10:47:00,49.1,29.8,29.42,SSW,194,9.2,10.6,47,0.00,,,0.00,proprietary,2013-04-26 14:47:00,
2013-04-26 10:52:00,49.2,29.8,29.42,SSW,201,6.9,9.0,46,0.00,,,0.00,proprietary,2013-04-26 14:52:00,
2013-04-26 10:57:00,49.6,31.0,29.42,SSE,166,7.7,11.1,48,0.00,,,0.00,proprietary,2013-04-26 14:57:00,
2013-04-26 11:02:00,50.0,30.8,29.42,SSE,153,9.2,12.4,47,0.00,,,0.00,proprietary,2013-04-26 15:02:00,
2013-04-26 11:07:00,50.2,30.5,29.42,South,186,7.0,10.0,46,0.00,,,0.00,proprietary,2013-04-26 15:07:00,
2013-04-26 11:12:00,49.3,29.0,29.41,South,187,7.9,10.2,45,0.00,,,0.00,proprietary,2013-04-26 15:12:00,
2013-04-26 11:17:00,50.4,31.1,29.41,SSE,164,8.6,10.5,47,0.00,,,0.00,proprietary,2013-04-26 15:17:00,
2013-04-26 11:22:00,51.0,31.5,29.41,SSE,151,9.2,10.6,47,0.00,,,0.00,proprietary,2013-04-26 15:22:00,
2013-04-26 11:27:00,50.4,31.0,29.41,SE,143,9.7,10.9,46,0.00,,,0.00,proprietary,2013-04-26 15:27:00,
2013-04-26 11:32:00,50.2,31.2,29.41,South,179,7.7,8.9,47,0.00,,,0.00,proprietary,2013-04-26 15:32:00,
2013-04-26 11:37:00,50.3,30.1,29.41,South,187,7.9,11.4,45,0.00,,,0.00,proprietary,2013-04-26 15:37:00,
2013-04-26 11:42:00,50.3,29.2,29.41,South,174,9.4,11.7,43,0.00,,,0.00,proprietary,2013-04-26 15:42:00,
2013-04-26 11:47:00,50.9,31.0,29.42,SSE,161,10.0,12.0,46,0.00,,,0.00,proprietary,2013-04-26 15:47:00,
2013-04-26 11:52:00,50.8,30.4,29.41,South,183,9.4,12.5,45,0.00,,,0.00,proprietary,2013-04-26 15:52:00,
2013-04-26 11:57:00,50.9,31.6,29.41,South,171,8.8,10.9,47,0.00,,,0.00,proprietary,2013-04-26 15:57:00,
2013-04-26 12:02:00,51.5,30.9,29.41,SSW,193,7.5,9.9,44,0.00,,,0.00,proprietary,2013-04-26 16:02:00,
2013-04-26 12:07:00,51.6,31.5,29.41,SSW,195,4.6,8.4,45,0.00,,,0.00,proprietary,2013-04-26 16:07:00,
2013-04-26 12:12:00,51.8,31.3,29.42,South,185,8.1,9.8,45,0.00,,,0.00,proprietary,2013-04-26 16:12:00,
2013-04-26 12:17:00,51.8,29.5,29.42,South,178,6.5,10.7,42,0.00,,,0.00,proprietary,2013-04-26 16:17:00,
2013-04-26 12:22:00,51.5,30.0,29.41,SE,138,9.2,12.8,43,0.00,,,0.00,proprietary,2013-04-26 16:22:00,
2013-04-26 12:27:00,52.0,30.3,29.41,South,181,8.3,11.5,43,0.00,,,0.00,proprietary,2013-04-26 16:27:00,
2013-04-26 12:32:00,52.3,31.8,29.41,SSE,164,12.1,13.7,45,0.00,,,0.00,proprietary,2013-04-26 16:32:00,
2013-04-26 12:37:00,52.3,31.0,29.41,SSE,158,5.9,8.1,44,0.00,,,0.00,proprietary,2013-04-26 16:37:00,
2013-04-26 12:42:00,53.2,32.3,29.41,SSW,196,7.9,9.6,44,0.00,,,0.00,proprietary,2013-04-26 16:42:00,
2013-04-26 12:47:00,52.6,30.2,29.41,South,183,9.1,11.7,42,0.00,,,0.00,proprietary,2013-04-26 16:47:00,
2013-04-26 12:52:00,52.5,30.2,29.41,SSE,150,6.0,7.2,42,0.00,,,0.00,proprietary,2013-04-26 16:52:00,
2013-04-26 12:57:00,53.9,30.7,29.40,South,171,8.0,10.7,40,0.00,,,0.00,proprietary,2013-04-26 16:57:00,
2013-04-26 13:02:00,54.0,30.5,29.40,SW,218,10.4,14.2,40,0.00,,,0.00,proprietary,2013-04-26 17:02:00,
2013-04-26 13:07:00,53.9,32.5,29.39,SE,145,8.7,11.1,43,0.00,,,0.00,proprietary,2013-04-26 17:07:00,
2013-04-26 13:12:00,54.0,32.9,29.40,South,172,7.6,10.7,44,0.00,,,0.00,proprietary,2013-04-26 17:12:00,
2013-04-26 13:17:00,53.8,33.1,29.39,SE,140,8.9,11.5,45,0.00,,,0.00,proprietary,2013-04-26 17:17:00,
2013-04-26 13:22:00,54.1,32.7,29.39,SSE,156,10.0,12.8,43,0.00,,,0.00,proprietary,2013-04-26 17:22:00,
2013-04-26 13:27:00,53.6,30.9,29.39,SSE,158,7.5,9.7,41,0.00,,,0.00,proprietary,2013-04-26 17:27:00,
2013-04-26 13:32:00,54.2,31.6,29.39,SSE,153,8.8,10.9,42,0.00,,,0.00,proprietary,2013-04-26 17:32:00,
2013-04-26 13:37:00,54.4,32.0,29.38,South,184,8.2,12.1,42,0.00,,,0.00,proprietary,2013-04-26 17:37:00,
2013-04-26 13:42:00,54.8,30.6,29.38,SSW,193,11.8,14.1,39,0.00,,,0.00,proprietary,2013-04-26 17:42:00,
2013-04-26 13:47:00,54.6,30.6,29.38,SSE,154,12.2,14.7,39,0.00,,,0.00,proprietary,2013-04-26 17:47:00,
2013-04-26 13:52:00,55.1,29.6,29.38,SSW,194,13.6,18.4,37,0.00,,,0.00,proprietary,2013-04-26 17:52:00,
2013-04-26 13:57:00,54.9,31.0,29.38,SE,145,12.1,16.6,39,0.00,,,0.00,proprietary,2013-04-26 17:57:00,
2013-04-26 14:02:00,54.4,30.9,29.38,SSE,163,14.1,17.0,40,0.00,,,0.00,proprietary,2013-04-26 18:02:00,
2013-04-26 14:07:00,55.6,31.1,29.38,SSE,149,10.8,14.5,39,0.00,,,0.00,proprietary,2013-04-26 18:07:00,
2013-04-26 14:12:00,55.9,30.8,29.38,SSW,201,8.9,11.6,38,0.00,,,0.00,proprietary,2013-04-26 18:12:00,
2013-04-26 14:17:00,56.3,31.8,29.38,SW,214,13.3,15.9,39,0.00,,,0.00,proprietary,2013-04-26 18:17:00,
2013-04-26 14:22:00,56.0,33.1,29.38,South,170,8.8,10.4,41,0.00,,,0.00,proprietary,2013-04-26 18:22:00,
2013-04-26 14:27:00,55.7,32.2,29.37,SSE,160,13.1,16.3,40,0.00,,,0.00,proprietary,2013-04-26 18:27:00,
2013-04-26 14:32:00,55.0,32.5,29.37,SE,132,7.3,9.6,42,0.00,,,0.00,proprietary,2013-04-26 18:32:00,
2013-04-26 14:37:00,55.3,33.0,29.37,SSE,155,8.9,10.6,42,0.00,,,0.00,proprietary,2013-04-26 18:37:00,
2013-04-26 14:42:00,56.0,32.4,29.37,SSE,164,8.5,10.6,40,0.00,,,0.00,proprietary,2013-04-26 18:42:00,
2013-04-26 14:47:00,56.4,33.1,29.37,South,172,10.3,12.2,41,0.00,,,0.00,proprietary,2013-04-26 18:47:00,
2013-04-26 14:52:00,55.9,32.2,29.37,South,188,10.4,15.2,40,0.00,,,0.00,proprietary,2013-04-26 18:52:00,
2013-04-26 14:57:00,55.8,32.3,29.37,SSW,205,10.5,15.1,40,0.00,,,0.00,proprietary,2013-04-26 18:57:00,
2013-04-26 15:02:00,56.5,33.2,29.37,SSE,168,12.5,14.9,41,0.00,,,0.00,proprietary,2013-04-26 19:02:00,
2013-04-26 15:07:00,56.5,32.6,29.37,South,175,10.9,13.3,40,0.00,,,0.00,proprietary,2013-04-26 19:07:00,
2013-04-26 15:12:00,56.6,32.3,29.36,SSE,163,11.4,14.1,39,0.00,,,0.00,proprietary,2013-04-26 19:12:00,
2013-04-26 15:17:00,57.1,34.3,29.36,South,171,11.3,13.3,42,0.00,,,0.00,proprietary,2013-04-26 19:17:00,
2013-04-26 15:22:00,56.4,31.4,29.36,South,180,13.6,18.2,38,0.00,,,0.00,proprietary,2013-04-26 19:22:00,
2013-04-26 15:27:00,56.5,33.0,29.36,SSE,159,11.7,13.6,40,0.00,,,0.00,proprietary,2013-04-26 19:27:00,
2013-04-26 15:32:00,57.1,32.6,29.35,SSE,165,12.6,17.4,39,0.00,,,0.00,proprietary,2013-04-26 19:32:00,
2013-04-26 15:37:00,57.4,31.8,29.35,SSE,162,10.3,13.3,37,0.00,,,0.00,proprietary,2013-04-26 19:37:00,
2013-04-26 15:42:00,57.4,32.8,29.35,SSE,148,10.8,13.0,39,0.00,,,0.00,proprietary,2013-04-26 19:42:00,
2013-04-26 15:47:00,57.0,32.3,29.35,SSE,160,8.8,12.8,38,0.00,,,0.00,proprietary,2013-04-26 19:47:00,
2013-04-26 15:52:00,56.9,33.1,29.35,SSE,147,11.4,15.7,40,0.00,,,0.00,proprietary,2013-04-26 19:52:00,
2013-04-26 15:57:00,57.3,33.5,29.35,SSW,192,12.6,15.7,40,0.00,,,0.00,proprietary,2013-04-26 19:57:00,
2013-04-26 16:02:00,57.2,31.4,29.34,SSW,204,12.2,13.6,37,0.00,,,0.00,proprietary,2013-04-26 20:02:00,
2013-04-26 16:07:00,58.0,33.2,29.34,SSW,213,6.5,10.8,39,0.00,,,0.00,proprietary,2013-04-26 20:07:00,
2013-04-26 16:12:00,58.2,32.3,29.34,South,170,9.9,12.0,37,0.00,,,0.00,proprietary,2013-04-26 20:12:00,
2013-04-26 16:17:00,57.1,31.9,29.34,SSW,197,9.2,11.8,38,0.00,,,0.00,proprietary,2013-04-26 20:17:00,
2013-04-26 16:22:00,58.5,33.7,29.34,SSE,152,11.5,15.8,38,0.00,,,0.00,proprietary,2013-04-26 20:22:00,
2013-04-26 16:27:00,57.7,32.8,29.33,SSE,162,10.4,14.6,38,0.00,,,0.00,proprietary,2013-04-26 20:27:00,
2013-04-26 16:32:00,57.1,31.1,29.33,SSE,158,10.1,15.2,37,0.00,,,0.00,proprietary,2013-04-26 20:32:00,
2013-04-26 16:37:00,58.3,32.0,29.33,South,180,10.6,13.4,36,0.00,,,0.00,proprietary,2013-04-26 20:37:00,
2013-04-26 16:42:00,58.4,32.5,29.33,SSE,154,10.2,12.4,37,0.00,,,0.00,proprietary,2013-04-26 20:42:00,
2013-04-26 16:47:00,57.9,31.2,29.32,South,186,11.5,13.5,36,0.00,,,0.00,proprietary,2013-04-26 20:47:00,
2013-04-26 16:52:00,57.8,33.0,29.32,South,174,9.0,10.9,38,0.00,,,0.00,proprietary,2013-04-26 20:52:00,
2013-04-26 16:57:00,58.0,33.3,29.32,SSE,153,11.1,14.4,39,0.00,,,0.00,proprietary,2013-04-26 20:57:00,
2013-04-26 17:02:00,57.9,33.3,29.32,South,189,8.5,10.6,39,0.00,,,0.00,proprietary,2013-04-26 21:02:00,
2013-04-26 17:07:00,58.0,33.4,29.31,SSE,163,9.6,12.3,39,0.00,,,0.00,proprietary,2013-04-26 21:07:00,
2013-04-26 17:12:00,58.7,33.9,29.31,South,189,10.4,12.6,39,0.00,,,0.00,proprietary,2013-04-26 21:12:00,
2013-04-26 17:17:00,59.2,33.2,29.31,SSW,194,13.1,14.9,37,0.00,,,0.00,proprietary,2013-04-26 21:17:00,
2013-04-26 17:22:00,58.5,33.6,29.31,South,183,10.8,12.3,38,0.00,,,0.00,proprietary,2013-04-26 21:22:00,
2013-04-26 17:27:00,58.3,32.7,29.32,South,190,11.1,12.7,37,0.00,,,0.00,proprietary,2013-04-26 21:27:00,
2013-04-26 17:32:00,58.4,32.6,29.32,South,175,9.7,12.6,37,0.00,,,0.00,proprietary,2013-04-26 21:32:00,
2013-04-26 17:37:00,58.4,33.2,29.32,South,169,9.1,11.1,38,0.00,,,0.00,proprietary,2013-04-26 21:37:00,
2013-04-26 17:42:00,59.1,34.2,29.32,SSE,159,9.8,12.1,39,0.00,,,0.00,proprietary,2013-04-26 21:42:00,
2013-04-26 17:47:00,58.3,33.0,29.32,South,174,8.9,11.5,38,0.00,,,0.00,proprietary,2013-04-26 21:47:00,
2013-04-26 17:52:00,57.8,32.0,29.32,SSW,192,10.6,12.5,37,0.00,,,0.00,proprietary,2013-04-26 21:52:00,
2013-04-26 17:57:00,57.8,32.1,29.32,South,191,5.4,7.4,37,0.00,,,0.00,proprietary,2013-04-26 21:57:00,
2013-04-26 18:02:00,57.4,33.5,29.32,South,175,9.2,11.6,40,0.00,,,0.00,proprietary,2013-04-26 22:02:00,
2013-04-26 18:07:00,57.9,32.8,29.32,SSE,158,10.1,12.1,38,0.00,,,0.00,proprietary,2013-04-26 22:07:00,
2013-04-26 18:12:00,57.9,31.3,29.33,SSW,204,7.9,11.2,36,0.00,,,0.00,proprietary,2013-04-26 22:12:00,
2013-04-26 18:17:00,57.5,33.1,29.33,South,176,7.1,9.1,39,0.00,,,0.00,proprietary,2013-04-26 22:17:00,
2013-04-26 18:22:00,57.0,32.0,29.33,SSW,196,9.6,11.8,38,0.00,,,0.00,proprietary,2013-04-26 22:22:00,
2013-04-26 18:27:00,57.3,32.0,29.33,South,183,5.7,7.4,38,0.00,,,0.00,proprietary,2013-04-26 22:27:00,
2013-04-26 18:32:00,57.7,33.0,29.33,South,186,10.5,12.9,39,0.00,,,0.00,proprietary,2013-04-26 22:32:00,
2013-04-26 18:37:00,57.6,32.2,29.32,South,178,8.1,9.7,38,0.00,,,0.00,proprietary,2013-04-26 22:37:00,
2013-04-26 18:42:00,57.7,33.1,29.32,South,184,7.7,10.1,39,0.00,,,0.00,proprietary,2013-04-26 22:42:00,
2013-04-26 18:47:00,57.5,32.4,29.32,South,172,8.8,10.3,38,0.00,,,0.00,proprietary,2013-04-26 22:47:00,
2013-04-26 18:52:00,57.6,32.6,29.32,SSE,168,7.7,9.5,38,0.00,,,0.00,proprietary,2013-04-26 22:52:00,
2013-04-26 18:57:00,58.2,33.2,29.32,SSW,194,9.2,12.1,38,0.00,,,0.00,proprietary,2013-04-26 22:57:00,
2013-04-26 19:02:00,57.8,32.7,29.32,SSE,163,8.1,11.4,38,0.00,,,0.00,proprietary,2013-04-26 23:02:00,
2013-04-26 19:07:00,57.5,33.2,29.32,SSE,168,8.3,10.3,39,0.00,,,0.00,proprietary,2013-04-26 23:07:00,
2013-04-26 19:12:00,57.8,33.0,29.32,South,172,10.9,12.6,38,0.00,,,0.00,proprietary,2013-04-26 23:12:00,
2013-04-26 19:17:00,57.7,33.2,29.31,South,175,7.0,8.6,39,0.00,,,0.00,proprietary,2013-04-26 23:17:00,
2013-04-26 19:22:00,57.8,32.7,29.31,SW,221,4.1,5.4,38,0.00,,,0.00,proprietary,2013-04-26 23:22:00,
2013-04-26 19:27:00,57.6,33.1,29.31,SSW,193,8.5,9.8,39,0.00,,,0.00,proprietary,2013-04-26 23:27:00,
2013-04-26 19:32:00,57.5,33.1,29.31,SSE,161,6.8,8.2,39,0.00,,,0.00,proprietary,2013-04-26 23:32:00,
2013-04-26 19:37:00,57.3,33.1,29.31,South,179,6.4,8.5,39,0.00,,,0.00,proprietary,2013-04-26 23:37:00,
2013-04-26 19:42:00,57.1,33.7,29.31,South,188,7.6,10.2,41,0.00,,,0.00,proprietary,2013-04-26 23:42:00,
2013-04-26 19:47:00,57.1,33.4,29.31,South,177,9.4,11.8,40,0.00,,,0.00,proprietary,2013-04-26 23:47:00,
2013-04-26 19:50:00,56.8,33.3,29.31,South,191,7.9,11.0,40,0.00,,,0.00,proprietary,2013-04-26 23:50:00,
2013-04-26 19:51:00,56.8,33.3,29.31,SSW,194,10.3,13.0,40,0.00,,,0.00,proprietary,2013-04-26 23:51:00,
2013-04-26 19:52:00,56.8,33.1,29.31,South,189,7.1,8.7,40,0.00,,,0.00,proprietary,2013-04-26 23:52:00,
2013-04-26 19:53:00,56.7,33.4,29.31,South,189,9.2,11.1,41,0.00,,,0.00,proprietary,2013-04-26 23:53:00,
2013-04-26 19:54:00,56.6,33.7,29.31,South,177,9.0,11.1,41,0.00,,,0.00,proprietary,2013-04-26 23:54:00,
2013-04-26 19:55:00,56.5,33.7,29.31,South,181,8.8,10.2,41,0.00,,,0.00,proprietary,2013-04-26 23:55:00,
2013-04-26 19:56:00,56.4,33.7,29.31,South,184,8.4,11.2,42,0.00,,,0.00,proprietary,2013-04-26 23:56:00,
2013-04-26 19:57:00,56.3,33.4,29.31,South,188,8.8,10.2,41,0.00,,,0.00,proprietary,2013-04-26 23:57:00,
2013-04-26 20:07:00,56.3,33.7,29.31,South,174,7.4,8.7,42,0.00,,,0.00,proprietary,2013-04-27 00:07:00,
2013-04-26 20:13:00,55.8,33.5,29.31,South,187,8.1,9.5,42,0.00,,,0.00,proprietary,2013-04-27 00:13:00,
2013-04-26 20:18:00,55.5,33.3,29.31,South,182,9.2,11.0,43,0.00,,,0.00,proprietary,2013-04-27 00:18:00,
2013-04-26 20:23:00,55.0,33.4,29.32,South,179,8.9,10.6,43,0.00,,,0.00,proprietary,2013-04-27 00:23:00,
2013-04-26 20:28:00,54.8,33.3,29.32,South,185,5.6,6.9,43,0.00,,,0.00,proprietary,2013-04-27 00:28:00,
2013-04-26 20:33:00,54.1,33.8,29.32,South,178,7.1,8.6,45,0.00,,,0.00,proprietary,2013-04-27 00:33:00,
2013-04-26 20:38:00,53.8,33.4,29.32,South,176,6.7,8.2,45,0.00,,,0.00,proprietary,2013-04-27 00:38:00,
2013-04-26 20:43:00,53.8,33.5,29.32,South,171,6.1,8.0,45,0.00,,,0.00,proprietary,2013-04-27 00:43:00,
2013-04-26 20:48:00,53.5,33.3,29.32,South,174,5.4,6.4,46,0.00,,,0.00,proprietary,2013-04-27 00:48:00,
2013-04-26 20:53:00,53.4,33.2,29.32,South,182,5.4,6.4,46,0.00,,,0.00,proprietary,2013-04-27 00:53:00,
2013-04-26 20:58:00,52.8,33.4,29.32,South,180,5.2,6.8,47,0.00,,,0.00,proprietary,2013-04-27 00:58:00,
2013-04-26 21:04:00,52.7,33.1,29.32,South,170,5.1,5.7,47,0.00,,,0.00,proprietary,2013-04-27 01:04:00,
2013-04-26 21:09:00,52.1,33.4,29.32,South,170,4.9,6.6,48,0.00,,,0.00,proprietary,2013-04-27 01:09:00,
2013-04-26 21:14:00,51.8,33.3,29.32,SSE,162,4.4,5.3,49,0.00,,,0.00,proprietary,2013-04-27 01:14:00,
2013-04-26 21:19:00,51.8,33.2,29.32,South,171,3.6,4.2,48,0.00,,,0.00,proprietary,2013-04-27 01:19:00,
2013-04-26 21:24:00,51.8,33.1,29.32,SSE,162,3.9,4.6,48,0.00,,,0.00,proprietary,2013-04-27 01:24:00,
2013-04-26 21:29:00,51.5,33.0,29.33,South,169,3.6,4.6,49,0.00,,,0.00,proprietary,2013-04-27 01:29:00,
2013-04-26 21:34:00,51.0,33.3,29.33,South,172,3.6,4.4,50,0.00,,,0.00,proprietary,2013-04-27 01:34:00,
2013-04-26 21:39:00,50.3,33.9,29.33,SSE,157,2.8,3.3,53,0.00,,,0.00,proprietary,2013-04-27 01:39:00,
2013-04-26 21:44:00,49.7,33.6,29.33,SSE,154,3.2,4.2,53,0.00,,,0.00,proprietary,2013-04-27 01:44:00,
2013-04-26 21:49:00,49.1,33.5,29.33,SE,140,2.2,2.5,54,0.00,,,0.00,proprietary,2013-04-27 01:49:00,
2013-04-26 21:54:00,48.5,33.6,29.33,SE,146,2.2,2.6,56,0.00,,,0.00,proprietary,2013-04-27 01:54:00,
2013-04-26 21:59:00,47.7,33.4,29.33,SE,145,2.3,2.7,57,0.00,,,0.00,proprietary,2013-04-27 01:59:00,
2013-04-26 22:04:00,47.1,33.2,29.33,SSE,149,2.9,3.2,58,0.00,,,0.00,proprietary,2013-04-27 02:04:00,
2013-04-26 22:09:00,47.3,33.5,29.33,SSE,150,2.1,3.1,58,0.00,,,0.00,proprietary,2013-04-27 02:09:00,
2013-04-26 22:15:00,47.1,33.6,29.33,SSE,157,2.3,3.1,58,0.00,,,0.00,proprietary,2013-04-27 02:15:00,
2013-04-26 22:20:00,47.0,33.5,29.34,SSE,163,1.3,1.8,59,0.00,,,0.00,proprietary,2013-04-27 02:20:00,
2013-04-26 22:25:00,46.4,33.9,29.34,North,0,0.0,0.0,61,0.00,,,0.00,proprietary,2013-04-27 02:25:00,
2013-04-26 22:30:00,45.6,33.3,29.34,SSE,151,0.1,1.1,61,0.00,,,0.00,proprietary,2013-04-27 02:30:00,
2013-04-26 22:36:00,45.0,33.6,29.34,SE,127,1.6,1.9,63,0.00,,,0.00,proprietary,2013-04-27 02:36:00,
2013-04-26 22:41:00,45.2,33.5,29.33,SE,132,1.9,2.2,63,0.00,,,0.00,proprietary,2013-04-27 02:41:00,
2013-04-26 22:46:00,45.5,33.2,29.34,SE,135,1.9,2.2,61,0.00,,,0.00,proprietary,2013-04-27 02:46:00,
2013-04-26 22:51:00,45.4,33.2,29.34,SE,141,2.1,2.6,62,0.00,,,0.00,proprietary,2013-04-27 02:51:00,
2013-04-26 22:56:00,45.1,33.4,29.34,SE,138,1.8,2.3,63,0.00,,,0.00,proprietary,2013-04-27 02:56:00,
2013-04-26 23:01:00,44.4,33.0,29.34,SE,130,1.8,2.1,63,0.00,,,0.00,proprietary,2013-04-27 03:01:00,
2013-04-26 23:06:00,44.7,33.1,29.34,SE,126,1.6,1.8,63,0.00,,,0.00,proprietary,2013-04-27 03:06:00,
2013-04-26 23:11:00,44.1,32.9,29.34,ESE,119,0.1,1.6,64,0.00,,,0.00,proprietary,2013-04-27 03:11:00,
2013-04-26 23:17:00,43.7,33.1,29.34,North,0,0.0,0.0,65,0.00,,,0.00,proprietary,2013-04-27 03:17:00,
2013-04-26 23:22:00,43.5,33.0,29.34,North,0,0.0,0.0,66,0.00,,,0.00,proprietary,2013-04-27 03:22:00,
2013-04-26 23:28:00,43.3,33.3,29.34,North,0,0.0,0.0,67,0.00,,,0.00,proprietary,2013-04-27 03:28:00,
2013-04-26 23:33:00,42.5,33.4,29.34,North,0,0.0,0.0,69,0.00,,,0.00,proprietary,2013-04-27 03:33:00,
2013-04-26 23:38:00,42.0,34.4,29.34,North,0,0.0,0.0,74,0.00,,,0.00,proprietary,2013-04-27 03:38:00,
2013-04-26 23:43:00,41.3,34.5,29.34,North,0,0.0,0.0,76,0.00,,,0.00,proprietary,2013-04-27 03:43:00,
2013-04-26 23:49:00,41.2,34.4,29.34,North,0,0.0,0.0,76,0.00,,,0.00,proprietary,2013-04-27 03:49:00,
2013-04-26 23:54:00,41.1,34.5,29.34,SSE,151,1.3,2.0,77,0.00,,,0.00,proprietary,2013-04-27 03:54:00,
2013-04-26 23:59:00,40.9,34.5,29.34,North,0,0.0,0.0,77,0.00,,,0.00,proprietary,2013-04-27 03:59:00,